Terminal Aerodrome Forecast
Issued by NWS Flagstaff, AZ

Home | Current Version | Previous Version | Text Only | Print | Product List | Glossary On
Versions: 1 2 3 4 5 6 7 8 9 10 11 12 13 14
000
FTUS45 KFGZ 281723
TAFINW
TAF
KINW 281723Z 2818/2918 VRB06KT P6SM BKN110
     FM282100 26008G14KT P6SM BKN100
     FM290230 23008KT P6SM SCT100
     FM291600 21007KT P6SM BKN100=

USA.gov is the U.S. government's official web portal to all federal, state and local government web resources and services.